createdAt,value
2022-12-11T00:02:11.661Z,96878.94
2022-12-11T00:04:38.252Z,96882.36
2022-12-11T00:07:04.792Z,96879.48
2022-12-11T00:09:31.544Z,96879.50
2022-12-11T00:11:58.052Z,96877.14
2022-12-11T00:14:24.557Z,96871.50
2022-12-11T00:16:51.098Z,96871.52
2022-12-11T00:19:17.593Z,96870.17
2022-12-11T00:21:44.138Z,96868.41
2022-12-11T00:24:10.680Z,96867.16
2022-12-11T00:26:37.247Z,96868.79
2022-12-11T00:29:04.165Z,96870.40
2022-12-11T00:31:31.352Z,96869.02
2022-12-11T00:33:58.072Z,96868.22
2022-12-11T00:36:26.667Z,96866.34
2022-12-11T00:38:54.233Z,96871.27
2022-12-11T00:41:20.966Z,96868.30
2022-12-11T00:43:47.915Z,96867.30
2022-12-11T00:46:15.062Z,96869.55
2022-12-11T00:48:41.791Z,96876.23
2022-12-11T00:51:08.581Z,96872.55
2022-12-11T00:53:35.069Z,96872.80
2022-12-11T00:56:01.512Z,96878.88
2022-12-11T00:58:28.486Z,96877.23
2022-12-11T01:00:55.239Z,96877.97
2022-12-11T01:03:21.861Z,96874.75
2022-12-11T01:05:55.761Z,96875.98
2022-12-11T01:08:22.457Z,96875.19
2022-12-11T01:10:49.088Z,96871.83
2022-12-11T01:13:16.210Z,96866.42
2022-12-11T01:15:45.517Z,96862.69
2022-12-11T01:18:13.803Z,96854.76
2022-12-11T01:20:42.113Z,96849.33
2022-12-11T01:23:08.590Z,96850.05
2022-12-11T01:25:36.011Z,96842.92
2022-12-11T01:28:02.736Z,96838.98
2022-12-11T01:30:29.257Z,96832.19
2022-12-11T01:32:55.742Z,96832.02
2022-12-11T01:35:22.661Z,96836.50
2022-12-11T01:37:49.495Z,96842.47
2022-12-11T01:40:19.487Z,96840.94
2022-12-11T01:42:46.492Z,96839.91
2022-12-11T01:45:24.683Z,96830.72
2022-12-11T01:48:05.326Z,96822.44
2022-12-11T01:50:36.743Z,96823.33
2022-12-11T01:53:06.145Z,96823.70
2022-12-11T01:55:34.422Z,96821.31
2022-12-11T01:58:02.480Z,96819.77
2022-12-11T02:00:29.011Z,96814.44
2022-12-11T02:02:55.483Z,96805.42
2022-12-11T02:05:22.210Z,96798.02
2022-12-11T02:07:53.911Z,96796.31
2022-12-11T02:10:22.077Z,96793.39
2022-12-11T02:12:59.010Z,96787.54
2022-12-11T02:15:37.977Z,96791.42
2022-12-11T02:18:31.435Z,96796.43
2022-12-11T02:21:05.735Z,96789.30
2022-12-11T02:23:44.482Z,96782.80
2022-12-11T02:26:13.916Z,96785.97
2022-12-11T02:28:49.335Z,96788.88
2022-12-11T02:31:28.019Z,96789.59
2022-12-11T02:34:06.992Z,96787.45
2022-12-11T02:36:37.816Z,96788.20
2022-12-11T02:39:07.648Z,96781.27
2022-12-11T02:41:34.801Z,96781.25
2022-12-11T02:44:04.160Z,96780.81
2022-12-11T02:46:33.823Z,96785.58
2022-12-11T02:49:03.002Z,96782.48
2022-12-11T02:51:34.485Z,96770.92
2022-12-11T02:54:02.238Z,96772.45
2022-12-11T02:56:34.115Z,96769.76
2022-12-11T02:59:07.054Z,96762.43
2022-12-11T03:01:33.796Z,96757.45
2022-12-11T03:04:00.581Z,96752.52
2022-12-11T03:06:36.152Z,96750.72
2022-12-11T03:09:04.928Z,96744.92
2022-12-11T03:11:31.483Z,96746.66
2022-12-11T03:13:59.180Z,96733.05
2022-12-11T03:17:07.158Z,96728.70
2022-12-11T03:19:41.477Z,96732.40
2022-12-11T03:22:26.853Z,96723.74
2022-12-11T03:25:00.769Z,96720.01
2022-12-11T03:27:37.863Z,96716.64
2022-12-11T03:30:16.140Z,96715.33
2022-12-11T03:32:58.024Z,96722.50
2022-12-11T03:35:37.067Z,96718.64
2022-12-11T03:38:12.259Z,96718.41
2022-12-11T03:40:42.453Z,96713.11
2022-12-11T03:43:11.329Z,96713.31
2022-12-11T03:45:40.038Z,96707.36
2022-12-11T03:48:10.003Z,96708.90
2022-12-11T03:50:37.124Z,96709.06
2022-12-11T03:53:05.111Z,96714.39
2022-12-11T03:55:33.509Z,96707.48
2022-12-11T03:58:00.139Z,96710.73
2022-12-11T04:00:27.054Z,96716.08
2022-12-11T04:02:53.755Z,96718.35
2022-12-11T04:05:20.298Z,96715.80
2022-12-11T04:07:46.808Z,96724.85
2022-12-11T04:10:13.294Z,96729.22
2022-12-11T04:12:39.657Z,96726.05
2022-12-11T04:15:06.463Z,96727.08
2022-12-11T04:17:36.268Z,96721.98
2022-12-11T04:20:03.894Z,96725.60
2022-12-11T04:22:30.294Z,96725.98
2022-12-11T04:24:56.797Z,96727.73
2022-12-11T04:27:23.574Z,96722.77
2022-12-11T04:29:50.182Z,96723.77
2022-12-11T04:32:16.724Z,96723.07
2022-12-11T04:34:43.267Z,96722.01
2022-12-11T04:37:09.804Z,96725.02
2022-12-11T04:39:36.252Z,96716.52
2022-12-11T04:42:02.716Z,96720.55
2022-12-11T04:44:29.220Z,96715.27
2022-12-11T04:46:55.854Z,96716.36
2022-12-11T04:49:22.304Z,96709.80
2022-12-11T04:51:48.948Z,96707.25
2022-12-11T04:54:15.630Z,96706.65
2022-12-11T04:56:42.123Z,96699.74
2022-12-11T04:59:08.561Z,96694.69
2022-12-11T05:01:35.446Z,96694.21
2022-12-11T05:04:02.017Z,96691.86
2022-12-11T05:06:28.686Z,96681.34
2022-12-11T05:08:55.326Z,96673.48
2022-12-11T05:11:21.799Z,96676.20
2022-12-11T05:13:48.307Z,96674.15
2022-12-11T05:16:16.761Z,96673.80
2022-12-11T05:18:43.836Z,96674.48
2022-12-11T05:21:13.646Z,96669.24
2022-12-11T05:23:41.051Z,96667.89
2022-12-11T05:26:11.887Z,96668.39
2022-12-11T05:28:39.385Z,96662.88
2022-12-11T05:31:18.185Z,96655.92
2022-12-11T05:33:46.669Z,96656.98
2022-12-11T05:36:21.994Z,96658.69
2022-12-11T05:38:49.116Z,96656.17
2022-12-11T05:41:18.580Z,96655.83
2022-12-11T05:43:45.148Z,96652.91
2022-12-11T05:46:21.029Z,96651.19
2022-12-11T05:48:50.080Z,96650.77
2022-12-11T05:51:17.721Z,96650.67
2022-12-11T05:53:45.384Z,96650.61
2022-12-11T05:56:20.890Z,96652.48
2022-12-11T05:58:48.615Z,96660.42
2022-12-11T06:01:19.281Z,96659.95
2022-12-11T06:03:45.797Z,96656.90
2022-12-11T06:06:12.519Z,96657.83
2022-12-11T06:08:38.938Z,96654.09
2022-12-11T06:11:06.312Z,96655.29
2022-12-11T06:13:33.632Z,96658.34
2022-12-11T06:16:02.449Z,96659.20
2022-12-11T06:18:29.614Z,96661.97
2022-12-11T06:20:56.121Z,96662.12
2022-12-11T06:23:23.545Z,96658.13
2022-12-11T06:25:50.154Z,96656.38
2022-12-11T06:28:17.088Z,96656.71
2022-12-11T06:30:43.538Z,96654.72
2022-12-11T06:33:10.077Z,96655.71
2022-12-11T06:35:41.929Z,96657.12
2022-12-11T06:38:09.680Z,96660.42
2022-12-11T06:40:36.221Z,96654.64
2022-12-11T06:43:02.643Z,96657.41
2022-12-11T06:45:29.180Z,96652.83
2022-12-11T06:47:55.703Z,96651.84
2022-12-11T06:50:22.316Z,96651.89
2022-12-11T06:52:48.838Z,96654.15
2022-12-11T06:55:15.581Z,96651.95
2022-12-11T06:57:42.222Z,96659.40
2022-12-11T07:00:09.558Z,96662.36
2022-12-11T07:02:36.109Z,96659.17
2022-12-11T07:05:03.070Z,96655.98
2022-12-11T07:07:29.611Z,96656.64
2022-12-11T07:09:56.332Z,96660.55
2022-12-11T07:12:22.894Z,96654.25
2022-12-11T07:14:49.411Z,96653.06
2022-12-11T07:17:16.135Z,96655.79
2022-12-11T07:19:42.925Z,96661.75
2022-12-11T07:22:09.466Z,96659.29
2022-12-11T07:24:36.248Z,96649.64
2022-12-11T07:27:02.735Z,96651.04
2022-12-11T07:29:29.420Z,96657.67
2022-12-11T07:31:56.274Z,96666.31
2022-12-11T07:34:22.879Z,96667.30
2022-12-11T07:36:49.328Z,96666.04
2022-12-11T07:39:16.277Z,96672.99
2022-12-11T07:41:42.920Z,96665.64
2022-12-11T07:44:09.459Z,96660.70
2022-12-11T07:46:36.069Z,96676.03
2022-12-11T07:49:02.604Z,96675.20
2022-12-11T07:51:34.898Z,96676.58
2022-12-11T07:54:05.446Z,96688.16
2022-12-11T07:56:32.592Z,96695.44
2022-12-11T07:59:04.527Z,96693.54
2022-12-11T08:01:33.694Z,96688.63
2022-12-11T08:04:00.174Z,96690.58
2022-12-11T08:06:29.294Z,96681.67
2022-12-11T08:08:57.323Z,96681.79
2022-12-11T08:11:24.640Z,96676.46
2022-12-11T08:13:51.125Z,96676.21
2022-12-11T08:16:18.571Z,96672.61
2022-12-11T08:18:46.724Z,96670.12
2022-12-11T08:21:16.559Z,96679.17
2022-12-11T08:23:43.282Z,96686.94
2022-12-11T08:26:30.812Z,96683.00
2022-12-11T08:28:59.046Z,96681.38
2022-12-11T08:31:25.841Z,96683.92
2022-12-11T08:33:53.914Z,96675.56
2022-12-11T08:36:22.533Z,96673.96
2022-12-11T08:38:49.774Z,96676.24
2022-12-11T08:41:19.476Z,96673.35
2022-12-11T08:43:46.644Z,96682.75
2022-12-11T08:46:14.176Z,96682.42
2022-12-11T08:48:42.378Z,96684.66
2022-12-11T08:51:12.873Z,96694.25
2022-12-11T08:53:40.106Z,96695.98
2022-12-11T08:56:09.548Z,96698.72
2022-12-11T08:58:36.119Z,96698.73
2022-12-11T09:01:10.778Z,96698.80
2022-12-11T09:03:38.308Z,96696.60
2022-12-11T09:06:06.599Z,96699.61
2022-12-11T09:08:34.253Z,96703.30
2022-12-11T09:11:10.324Z,96705.73
2022-12-11T09:13:37.839Z,96702.81
2022-12-11T09:16:09.716Z,96704.23
2022-12-11T09:18:37.523Z,96702.41
2022-12-11T09:21:10.433Z,96700.66
2022-12-11T09:23:37.801Z,96696.01
2022-12-11T09:26:06.144Z,96698.31
2022-12-11T09:28:33.485Z,96694.15
2022-12-11T09:31:00.222Z,96709.75
2022-12-11T09:33:26.729Z,96717.58
2022-12-11T09:36:00.902Z,96712.97
2022-12-11T09:38:27.538Z,96714.73
2022-12-11T09:40:55.021Z,96706.42
2022-12-11T09:43:30.971Z,96707.52
2022-12-11T09:46:00.795Z,96701.80
2022-12-11T09:48:28.060Z,96696.28
2022-12-11T09:50:55.605Z,96683.91
2022-12-11T09:53:33.934Z,96676.53
2022-12-11T09:56:16.848Z,96675.36
2022-12-11T09:58:54.347Z,96676.88
2022-12-11T10:01:30.051Z,96675.98
2022-12-11T10:04:31.973Z,96679.79
2022-12-11T10:07:04.554Z,96686.44
2022-12-11T10:09:42.254Z,96679.05
2022-12-11T10:12:18.010Z,96686.00
2022-12-11T10:15:03.824Z,96690.89
2022-12-11T10:17:33.105Z,96690.34
2022-12-11T10:20:38.276Z,96691.89
2022-12-11T10:23:09.644Z,96685.89
2022-12-11T10:25:40.757Z,96675.60
2022-12-11T10:28:19.224Z,96684.60
2022-12-11T10:30:59.570Z,96691.77
2022-12-11T10:33:51.045Z,96692.39
2022-12-11T10:36:25.480Z,96695.76
2022-12-11T10:38:52.485Z,96688.36
2022-12-11T10:41:33.133Z,96691.90
2022-12-11T10:43:59.747Z,96694.56
2022-12-11T10:46:29.100Z,96697.05
2022-12-11T10:48:58.504Z,96697.64
2022-12-11T10:51:32.489Z,96700.53
2022-12-11T10:54:27.216Z,96691.61
2022-12-11T10:56:55.208Z,96698.23
2022-12-11T10:59:39.098Z,96698.33
2022-12-11T11:02:18.574Z,96699.80
2022-12-11T11:04:45.607Z,96695.91
2022-12-11T11:07:15.632Z,96695.77
2022-12-11T11:09:42.675Z,96702.83
2022-12-11T11:12:25.061Z,96706.41
2022-12-11T11:15:06.300Z,96702.64
2022-12-11T11:17:51.129Z,96701.42
2022-12-11T11:20:25.675Z,96701.98
2022-12-11T11:23:04.945Z,96711.75
2022-12-11T11:25:33.605Z,96713.75
2022-12-11T11:28:03.505Z,96702.13
2022-12-11T11:30:37.181Z,96709.02
2022-12-11T11:33:17.768Z,96709.05
2022-12-11T11:36:02.729Z,96711.13
2022-12-11T11:38:37.618Z,96705.96
2022-12-11T11:41:21.301Z,96705.17
2022-12-11T11:43:59.254Z,96710.36
2022-12-11T11:46:42.643Z,96708.02
2022-12-11T11:49:34.477Z,96703.29
2022-12-11T11:52:12.173Z,96703.55
2022-12-11T11:54:58.421Z,96702.54
2022-12-11T11:57:41.959Z,96705.20
2022-12-11T12:00:19.348Z,96706.66
2022-12-11T12:02:46.792Z,96705.84
2022-12-11T12:05:13.845Z,96701.19
2022-12-11T12:08:14.476Z,96716.48
2022-12-11T12:10:46.888Z,96716.57
2022-12-11T12:16:56.376Z,96718.14
2022-12-11T12:19:43.949Z,96723.94
2022-12-11T12:22:25.633Z,96722.73
2022-12-11T12:25:07.070Z,96728.41
2022-12-11T12:27:57.561Z,96728.22
2022-12-11T12:30:24.464Z,96723.28
2022-12-11T12:33:15.325Z,96713.20
2022-12-11T12:36:06.643Z,96706.75
2022-12-11T12:38:42.861Z,96701.46
2022-12-11T12:41:16.932Z,96694.55
2022-12-11T12:44:05.672Z,96684.15
2022-12-11T12:46:49.744Z,96681.30
2022-12-11T12:49:29.803Z,96686.66
2022-12-11T12:51:57.184Z,96695.54
2022-12-11T12:54:26.968Z,96700.98
2022-12-11T12:56:54.238Z,96699.87
2022-12-11T12:59:26.262Z,96702.36
2022-12-11T13:01:58.859Z,96707.31
2022-12-11T13:04:56.707Z,96713.92
2022-12-11T13:07:27.581Z,96725.59
2022-12-11T13:09:58.857Z,96722.70
2022-12-11T13:12:50.820Z,96726.25
2022-12-11T13:15:30.233Z,96735.45
2022-12-11T13:17:57.900Z,96737.90
2022-12-11T13:20:31.157Z,96744.89
2022-12-11T13:23:06.507Z,96752.41
2022-12-11T13:26:05.344Z,96763.07
2022-12-11T13:28:46.560Z,96755.25
2022-12-11T13:31:16.380Z,96752.19
2022-12-11T13:33:52.711Z,96745.07
2022-12-11T13:36:35.029Z,96747.64
2022-12-11T13:39:08.936Z,96743.41
2022-12-11T13:41:38.135Z,96746.73
2022-12-11T13:44:06.125Z,96750.84
2022-12-11T13:46:36.694Z,96762.79
2022-12-11T13:49:07.020Z,96772.42
2022-12-11T13:51:34.763Z,96768.55
2022-12-11T13:54:17.824Z,96764.92
2022-12-11T13:57:16.728Z,96765.70
2022-12-11T13:59:48.831Z,96772.51
2022-12-11T14:02:26.435Z,96765.25
2022-12-11T14:04:57.761Z,96757.63
2022-12-11T14:07:31.511Z,96757.11
2022-12-11T14:10:06.234Z,96759.65
2022-12-11T14:12:32.664Z,96755.68
2022-12-11T14:15:01.873Z,96745.26
2022-12-11T14:17:31.633Z,96742.86
2022-12-11T14:20:00.741Z,96742.70
2022-12-11T14:22:29.745Z,96740.69
2022-12-11T14:24:59.393Z,96740.79
2022-12-11T14:27:27.382Z,96741.59
2022-12-11T14:29:54.892Z,96755.21
2022-12-11T14:32:44.755Z,96763.95
2022-12-11T14:35:32.877Z,96768.13
2022-12-11T14:38:10.768Z,96774.14
2022-12-11T14:40:43.455Z,96779.25
2022-12-11T14:43:18.389Z,96785.73
2022-12-11T14:45:48.358Z,96792.35
2022-12-11T14:48:23.753Z,96793.34
2022-12-11T14:50:55.718Z,96800.77
2022-12-11T14:53:27.688Z,96806.05
2022-12-11T14:55:57.037Z,96811.98
2022-12-11T14:58:26.515Z,96817.08
2022-12-11T15:01:04.794Z,96814.01
2022-12-11T15:03:36.374Z,96808.91
2022-12-11T15:06:04.160Z,96810.60
2022-12-11T15:08:37.106Z,96811.34
2022-12-11T15:11:09.201Z,96810.66
2022-12-11T15:13:39.154Z,96808.84
2022-12-11T15:16:07.804Z,96815.96
2022-12-11T15:18:39.241Z,96815.98
2022-12-11T15:21:09.594Z,96818.36
2022-12-11T15:23:44.955Z,96818.58
2022-12-11T15:26:11.730Z,96820.77
2022-12-11T15:28:39.437Z,96833.54
2022-12-11T15:31:22.208Z,96838.80
2022-12-11T15:33:48.713Z,96852.39
2022-12-11T15:36:30.372Z,96856.84
2022-12-11T15:38:57.868Z,96860.21
2022-12-11T15:41:25.571Z,96861.64
2022-12-11T15:43:59.092Z,96864.56
2022-12-11T15:46:26.292Z,96869.31
2022-12-11T15:48:53.150Z,96873.07
2022-12-11T15:51:19.663Z,96871.39
2022-12-11T15:53:46.115Z,96866.44
2022-12-11T15:56:16.592Z,96865.25
2022-12-11T15:58:45.344Z,96856.11
2022-12-11T16:01:11.937Z,96856.30
2022-12-11T16:03:38.521Z,96857.67
2022-12-11T16:06:05.371Z,96865.03
2022-12-11T16:08:31.855Z,96861.23
2022-12-11T16:10:58.453Z,96858.89
2022-12-11T16:13:24.899Z,96850.55
2022-12-11T16:15:51.742Z,96851.77
2022-12-11T16:18:21.337Z,96847.71
2022-12-11T16:20:49.014Z,96851.13
2022-12-11T16:23:16.039Z,96848.09
2022-12-11T16:25:43.663Z,96848.08
2022-12-11T16:28:13.501Z,96845.85
2022-12-11T16:30:40.843Z,96853.85
2022-12-11T16:33:12.483Z,96853.88
2022-12-11T16:35:40.696Z,96850.67
2022-12-11T16:38:07.278Z,96851.95
2022-12-11T16:40:33.684Z,96854.24
2022-12-11T16:43:00.128Z,96859.74
2022-12-11T16:45:26.873Z,96867.65
2022-12-11T16:47:53.952Z,96869.21
2022-12-11T16:50:20.492Z,96866.30
2022-12-11T16:52:47.255Z,96862.52
2022-12-11T16:55:14.489Z,96859.45
2022-12-11T16:57:42.161Z,96859.94
2022-12-11T17:00:11.179Z,96859.96
2022-12-11T17:02:37.934Z,96859.48
2022-12-11T17:05:05.259Z,96854.56
2022-12-11T17:07:32.926Z,96855.62
2022-12-11T17:09:59.508Z,96853.33
2022-12-11T17:12:26.316Z,96857.09
2022-12-11T17:14:53.044Z,96856.44
2022-12-11T17:17:19.602Z,96860.55
2022-12-11T17:19:46.144Z,96868.40
2022-12-11T17:22:12.683Z,96874.55
2022-12-11T17:24:39.322Z,96880.35
2022-12-11T17:27:05.864Z,96883.04
2022-12-11T17:29:32.275Z,96883.23
2022-12-11T17:31:58.945Z,96883.08
2022-12-11T17:34:25.586Z,96885.83
2022-12-11T17:36:52.126Z,96886.03
2022-12-11T17:39:18.566Z,96887.40
2022-12-11T17:41:45.204Z,96887.23
2022-12-11T17:44:13.090Z,96891.10
2022-12-11T17:46:39.780Z,96885.50
2022-12-11T17:49:06.666Z,96887.55
2022-12-11T17:51:33.308Z,96884.48
2022-12-11T17:53:59.774Z,96890.47
2022-12-11T17:56:26.905Z,96892.04
2022-12-11T17:58:53.453Z,96890.85
2022-12-11T18:01:20.287Z,96889.20
2022-12-11T18:03:47.501Z,96890.45
2022-12-11T18:06:15.535Z,96899.97
2022-12-11T18:08:43.531Z,96897.48
2022-12-11T18:11:20.706Z,96901.91
2022-12-11T18:13:48.830Z,96901.15
2022-12-11T18:16:19.236Z,96901.81
2022-12-11T18:18:47.686Z,96908.08
2022-12-11T18:21:17.908Z,96908.56
2022-12-11T18:23:45.269Z,96908.89
2022-12-11T18:26:11.911Z,96912.15
2022-12-11T18:28:38.548Z,96914.67
2022-12-11T18:31:05.212Z,96914.05
2022-12-11T18:33:32.038Z,96910.64
2022-12-11T18:35:58.542Z,96911.69
2022-12-11T18:38:24.938Z,96912.70
2022-12-11T18:40:51.652Z,96906.13
2022-12-11T18:43:18.190Z,96907.19
2022-12-11T18:45:44.705Z,96909.57
2022-12-11T18:48:12.308Z,96904.64
2022-12-11T18:50:46.929Z,96904.66
2022-12-11T18:53:13.777Z,96907.21
2022-12-11T18:55:45.130Z,96910.45
2022-12-11T18:58:14.044Z,96908.38
2022-12-11T19:00:42.264Z,96909.39
2022-12-11T19:03:09.997Z,96914.02
2022-12-11T19:05:36.836Z,96910.46
2022-12-11T19:08:03.699Z,96913.41
2022-12-11T19:10:30.432Z,96915.14
2022-12-11T19:12:57.151Z,96908.02
2022-12-11T19:15:24.239Z,96913.38
2022-12-11T19:17:51.057Z,96912.40
2022-12-11T19:20:48.430Z,96910.46
2022-12-11T19:23:05.428Z,96913.73
2022-12-11T19:25:32.732Z,96907.39
2022-12-11T19:27:59.326Z,96902.04
2022-12-11T19:30:25.967Z,96904.83
2022-12-11T19:32:52.450Z,96909.14
2022-12-11T19:35:19.046Z,96914.98
2022-12-11T19:37:45.894Z,96918.23
2022-12-11T19:40:12.359Z,96911.52
2022-12-11T19:42:38.977Z,96913.41
2022-12-11T19:45:06.229Z,96913.28
2022-12-11T19:47:32.763Z,96916.36
2022-12-11T19:50:00.026Z,96916.20
2022-12-11T19:52:26.573Z,96915.53
2022-12-11T19:54:53.520Z,96917.23
2022-12-11T19:57:20.259Z,96912.67
2022-12-11T19:59:46.896Z,96913.67
2022-12-11T20:02:13.466Z,96916.11
2022-12-11T20:04:40.093Z,96918.17
2022-12-11T20:07:06.779Z,96914.29
2022-12-11T20:09:33.466Z,96921.95
2022-12-11T20:11:59.926Z,96919.92
2022-12-11T20:14:26.755Z,96918.77
2022-12-11T20:17:12.468Z,96920.64
2022-12-11T20:19:40.413Z,96926.89
2022-12-11T20:22:07.053Z,96932.70
2022-12-11T20:24:34.000Z,96938.60
2022-12-11T20:27:00.538Z,96939.08
2022-12-11T20:29:27.286Z,96938.77
2022-12-11T20:31:53.874Z,96943.20
2022-12-11T20:34:20.388Z,96953.90
2022-12-11T20:36:48.545Z,96952.56
2022-12-11T20:39:15.084Z,96953.43
2022-12-11T20:41:42.133Z,96953.75
2022-12-11T20:44:08.769Z,96950.21
2022-12-11T20:46:35.412Z,96954.98
2022-12-11T20:49:02.052Z,96956.52
2022-12-11T20:51:28.698Z,96961.30
2022-12-11T20:53:55.887Z,96962.15
2022-12-11T20:56:22.594Z,96964.02
2022-12-11T20:58:49.482Z,96959.63
2022-12-11T21:01:21.911Z,96959.44
2022-12-11T21:03:48.557Z,96959.95
2022-12-11T21:06:22.369Z,96957.05
2022-12-11T21:08:49.214Z,96957.04
2022-12-11T21:11:16.075Z,96958.23
2022-12-11T21:13:42.701Z,96958.26
2022-12-11T21:16:10.428Z,96963.36
2022-12-11T21:18:38.441Z,96964.22
2022-12-11T21:21:05.902Z,96963.21
2022-12-11T21:23:33.284Z,96970.52
2022-12-11T21:26:00.626Z,96967.14
2022-12-11T21:28:33.515Z,96961.90
2022-12-11T21:31:05.568Z,96961.58
2022-12-11T21:33:32.636Z,96961.92
2022-12-11T21:36:00.523Z,96961.58
2022-12-11T21:38:28.352Z,96956.33
2022-12-11T21:40:57.750Z,96959.73
2022-12-11T21:43:24.550Z,96964.09
2022-12-11T21:46:00.850Z,96965.50
2022-12-11T21:48:29.384Z,96973.14
2022-12-11T21:50:56.129Z,96971.81
2022-12-11T21:53:22.762Z,96971.86
2022-12-11T21:55:49.249Z,96967.66
2022-12-11T21:58:15.747Z,96968.39
2022-12-11T22:00:42.372Z,96967.58
2022-12-11T22:03:08.859Z,96971.19
2022-12-11T22:05:35.361Z,96972.41
2022-12-11T22:08:02.045Z,96975.50
2022-12-11T22:10:30.924Z,96982.84
2022-12-11T22:12:57.372Z,96984.91
2022-12-11T22:15:23.876Z,96982.54
2022-12-11T22:17:51.920Z,96977.11
2022-12-11T22:20:18.496Z,96974.38
2022-12-11T22:22:45.028Z,96971.49
2022-12-11T22:25:11.975Z,96967.27
2022-12-11T22:27:38.721Z,96968.78
2022-12-11T22:30:05.782Z,96965.54
2022-12-11T22:32:32.231Z,96965.20
2022-12-11T22:34:58.874Z,96962.14
2022-12-11T22:37:25.808Z,96956.71
2022-12-11T22:39:52.343Z,96957.59
2022-12-11T22:42:18.761Z,96956.30
2022-12-11T22:44:45.296Z,96950.08
2022-12-11T22:47:13.466Z,96947.40
2022-12-11T22:49:39.931Z,96947.48
2022-12-11T22:52:06.469Z,96952.10
2022-12-11T22:54:34.416Z,96950.75
2022-12-11T22:57:00.830Z,96957.89
2022-12-11T22:59:27.267Z,96961.14
2022-12-11T23:01:53.858Z,96959.83
2022-12-11T23:04:20.406Z,96966.29
2022-12-11T23:06:47.162Z,96964.63
2022-12-11T23:09:14.604Z,96964.45
2022-12-11T23:11:41.146Z,96965.34
2022-12-11T23:14:10.964Z,96965.50
2022-12-11T23:16:37.542Z,96967.31
2022-12-11T23:19:04.248Z,96972.23
2022-12-11T23:21:30.793Z,96975.96
2022-12-11T23:23:57.940Z,96972.70
2022-12-11T23:26:24.725Z,96969.10
2022-12-11T23:28:51.354Z,96970.97
2022-12-11T23:31:19.731Z,96969.94
2022-12-11T23:33:46.249Z,96972.77
2022-12-11T23:36:13.405Z,96972.58
2022-12-11T23:38:40.723Z,96975.45
2022-12-11T23:41:09.975Z,96971.44
2022-12-11T23:43:37.928Z,96977.06
2022-12-11T23:46:10.429Z,96975.54
2022-12-11T23:48:37.160Z,96976.52
2022-12-11T23:51:05.891Z,96973.23
2022-12-11T23:54:16.551Z,96980.86
2022-12-11T23:57:27.273Z,96984.26
